createdAt,value
2018-04-06T00:00:17.123Z,54.00
2018-04-06T00:02:46.183Z,54.10
2018-04-06T00:05:14.493Z,54.00
2018-04-06T00:07:43.648Z,54.00
2018-04-06T00:10:11.914Z,54.00
2018-04-06T00:12:40.255Z,53.70
2018-04-06T00:15:08.599Z,54.40
2018-04-06T00:17:38.129Z,54.00
2018-04-06T00:20:08.332Z,53.90
2018-04-06T00:22:37.395Z,55.80
2018-04-06T00:25:05.674Z,55.10
2018-04-06T00:27:34.229Z,55.50
2018-04-06T00:30:02.685Z,55.50
2018-04-06T00:32:31.039Z,54.10
2018-04-06T00:35:00.155Z,54.20
2018-04-06T00:37:29.323Z,55.90
2018-04-06T00:39:57.658Z,55.90
2018-04-06T00:42:25.947Z,54.50
2018-04-06T00:44:54.283Z,54.60
2018-04-06T00:47:23.450Z,54.20
2018-04-06T00:49:51.788Z,54.20
2018-04-06T00:52:21.436Z,54.40
2018-04-06T00:54:49.894Z,54.40
2018-04-06T00:57:18.304Z,54.80
2018-04-06T00:59:46.608Z,55.30
2018-04-06T01:02:14.889Z,54.70
2018-04-06T01:04:43.207Z,54.40
2018-04-06T01:07:11.512Z,54.80
2018-04-06T01:09:40.980Z,55.30
2018-04-06T01:12:09.334Z,55.30
2018-04-06T01:14:37.818Z,54.40
2018-04-06T01:17:06.208Z,53.90
2018-04-06T01:19:34.534Z,54.60
2018-04-06T01:22:04.713Z,54.60
2018-04-06T01:24:32.996Z,54.60
2018-04-06T01:27:01.292Z,54.20
2018-04-06T01:29:29.936Z,54.90
2018-04-06T01:31:58.204Z,55.00
2018-04-06T01:34:26.607Z,54.80
2018-04-06T01:36:55.021Z,55.10
2018-04-06T01:39:24.187Z,54.00
2018-04-06T01:41:52.448Z,54.50
2018-04-06T01:44:20.868Z,55.40
2018-04-06T01:46:50.083Z,55.60
2018-04-06T01:49:19.303Z,55.60
2018-04-06T01:51:47.624Z,54.90
2018-04-06T01:54:15.914Z,54.90
2018-04-06T01:56:44.245Z,55.50
2018-04-06T01:59:12.689Z,54.80
2018-04-06T02:01:41.822Z,56.20
2018-04-06T02:04:10.365Z,56.20
2018-04-06T02:06:39.815Z,55.30
2018-04-06T02:09:08.275Z,55.30
2018-04-06T02:11:37.823Z,55.70
2018-04-06T02:14:06.395Z,55.50
2018-04-06T02:16:34.752Z,56.80
2018-04-06T02:19:03.103Z,55.90
2018-04-06T02:21:32.156Z,55.70
2018-04-06T02:24:00.580Z,55.80
2018-04-06T02:26:28.864Z,56.60
2018-04-06T02:28:57.171Z,55.20
2018-04-06T02:31:25.436Z,55.10
2018-04-06T02:33:53.820Z,55.40
2018-04-06T02:36:22.325Z,54.50
2018-04-06T02:38:50.917Z,55.60
2018-04-06T02:41:19.585Z,55.00
2018-04-06T02:43:47.950Z,55.30
2018-04-06T02:46:16.299Z,55.90
2018-04-06T02:48:44.779Z,55.60
2018-04-06T02:51:13.066Z,56.30
2018-04-06T02:53:42.325Z,55.80
2018-04-06T02:56:12.694Z,54.70
2018-04-06T02:58:41.074Z,54.70
2018-04-06T03:01:09.326Z,54.90
2018-04-06T03:03:37.614Z,55.00
2018-04-06T03:06:05.930Z,55.70
2018-04-06T03:08:34.291Z,56.20
2018-04-06T03:11:02.739Z,54.60
2018-04-06T03:13:31.181Z,55.00
2018-04-06T03:15:59.562Z,54.70
2018-04-06T03:18:27.907Z,55.10
2018-04-06T03:20:56.216Z,54.90
2018-04-06T03:23:24.735Z,55.70
2018-04-06T03:25:53.260Z,56.40
2018-04-06T03:28:21.691Z,55.70
2018-04-06T03:33:33.990Z,55.40
2018-04-06T03:36:02.471Z,55.00
2018-04-06T03:38:30.809Z,55.10
2018-04-06T03:40:59.509Z,54.50
2018-04-06T03:43:27.794Z,54.60
2018-04-06T03:45:56.106Z,54.80
2018-04-06T03:48:25.272Z,55.20
2018-04-06T03:50:53.542Z,55.20
2018-04-06T03:53:22.671Z,55.30
2018-04-06T03:55:51.826Z,54.90
2018-04-06T03:58:20.337Z,54.80
2018-04-06T04:00:49.421Z,55.40
2018-04-06T04:03:17.724Z,55.30
2018-04-06T04:05:45.978Z,55.90
2018-04-06T04:08:14.376Z,54.80
2018-04-06T04:10:44.187Z,56.00
2018-04-06T04:13:14.508Z,56.10
2018-04-06T04:15:43.672Z,56.00
2018-04-06T04:18:12.038Z,56.00
2018-04-06T04:20:40.672Z,55.00
2018-04-06T04:23:09.032Z,54.40
2018-04-06T04:25:38.182Z,55.10
2018-04-06T04:28:06.696Z,55.00
2018-04-06T04:30:35.040Z,55.70
2018-04-06T04:33:03.516Z,54.80
2018-04-06T04:35:31.829Z,57.50
2018-04-06T04:38:00.240Z,59.60
2018-04-06T04:40:29.288Z,56.90
2018-04-06T04:42:57.644Z,57.00
2018-04-06T04:45:26.017Z,57.30
2018-04-06T04:47:54.342Z,57.40
2018-04-06T04:50:22.618Z,56.40
2018-04-06T04:52:51.066Z,56.90
2018-04-06T04:55:20.130Z,55.90
2018-04-06T04:57:48.660Z,55.90
2018-04-06T05:00:16.949Z,56.40
2018-04-06T05:02:45.270Z,56.10
2018-04-06T05:05:13.789Z,57.10
2018-04-06T05:07:42.125Z,56.60
2018-04-06T05:10:10.584Z,55.50
2018-04-06T05:12:39.669Z,56.00
2018-04-06T05:15:14.139Z,55.90
2018-04-06T05:17:42.570Z,55.30
2018-04-06T05:20:10.880Z,55.40
2018-04-06T05:22:39.235Z,55.30
2018-04-06T05:25:08.386Z,54.50
2018-04-06T05:27:36.866Z,54.50
2018-04-06T05:30:05.454Z,55.30
2018-04-06T05:32:35.871Z,55.20
2018-04-06T05:35:04.573Z,55.20
2018-04-06T05:37:33.020Z,55.90
2018-04-06T05:40:01.422Z,55.10
2018-04-06T05:42:29.790Z,56.50
2018-04-06T05:44:58.310Z,56.10
2018-04-06T05:47:26.609Z,55.60
2018-04-06T05:49:55.678Z,56.60
2018-04-06T05:52:24.077Z,56.40
2018-04-06T05:54:53.155Z,55.70
2018-04-06T05:57:22.274Z,56.30
2018-04-06T05:59:51.436Z,55.30
2018-04-06T06:02:20.033Z,55.20
2018-04-06T06:04:48.310Z,55.60
2018-04-06T06:07:16.604Z,55.90
2018-04-06T06:09:45.616Z,55.90
2018-04-06T06:12:13.984Z,55.90
2018-04-06T06:14:42.595Z,55.60
2018-04-06T06:17:11.942Z,55.10
2018-04-06T06:19:41.020Z,55.50
2018-04-06T06:22:09.776Z,55.50
2018-04-06T06:24:38.099Z,55.30
2018-04-06T06:27:06.415Z,54.10
2018-04-06T06:29:35.155Z,55.10
2018-04-06T06:32:03.570Z,54.80
2018-04-06T06:34:32.687Z,54.30
2018-04-06T06:37:02.124Z,54.30
2018-04-06T06:39:33.166Z,53.70
2018-04-06T06:42:01.462Z,53.70
2018-04-06T06:44:30.672Z,52.70
2018-04-06T06:46:59.760Z,52.80
2018-04-06T06:49:29.022Z,52.20
2018-04-06T06:51:57.776Z,52.30
2018-04-06T06:54:26.212Z,51.60
2018-04-06T06:56:55.594Z,52.00
2018-04-06T06:59:24.111Z,51.90
2018-04-06T07:01:53.416Z,51.80
2018-04-06T07:04:24.325Z,51.10
2018-04-06T07:06:52.710Z,51.00
2018-04-06T07:09:21.052Z,50.80
2018-04-06T07:11:49.791Z,50.80
2018-04-06T07:14:19.461Z,50.80
2018-04-06T07:16:48.038Z,50.90
2018-04-06T07:19:16.336Z,51.20
2018-04-06T07:21:45.517Z,50.00
2018-04-06T07:24:13.966Z,50.00
2018-04-06T07:26:42.544Z,50.20
2018-04-06T07:29:10.912Z,49.90
2018-04-06T07:31:39.195Z,48.20
2018-04-06T07:34:07.706Z,48.30
2018-04-06T07:36:36.450Z,48.50
2018-04-06T07:39:07.666Z,48.20
2018-04-06T07:41:35.971Z,46.60
2018-04-06T07:44:04.279Z,45.10
2018-04-06T07:46:32.584Z,45.50
2018-04-06T07:49:00.880Z,45.50
2018-04-06T07:51:29.942Z,43.60
2018-04-06T07:53:58.261Z,43.00
2018-04-06T07:56:27.432Z,40.70
2018-04-06T07:58:57.267Z,40.70
2018-04-06T08:01:25.745Z,42.00
2018-04-06T08:03:54.947Z,41.90
2018-04-06T08:06:24.099Z,41.30
2018-04-06T08:08:52.383Z,41.30
2018-04-06T08:11:20.770Z,43.80
2018-04-06T08:13:49.122Z,40.80
2018-04-06T08:16:17.482Z,40.70
2018-04-06T08:18:46.307Z,40.40
2018-04-06T08:21:14.650Z,39.30
2018-04-06T08:23:42.961Z,39.30
2018-04-06T08:26:11.266Z,39.30
2018-04-06T08:28:39.540Z,38.50
2018-04-06T08:31:08.067Z,38.30
2018-04-06T08:33:36.693Z,37.80
2018-04-06T08:36:05.089Z,37.90
2018-04-06T08:38:33.465Z,38.10
2018-04-06T08:41:01.949Z,37.90
2018-04-06T08:43:31.032Z,36.10
2018-04-06T08:45:59.307Z,36.10
2018-04-06T08:48:27.972Z,36.60
2018-04-06T08:50:56.451Z,33.90
2018-04-06T08:53:24.766Z,34.30
2018-04-06T08:55:53.982Z,35.00
2018-04-06T08:58:22.311Z,34.90
2018-04-06T09:00:50.956Z,34.20
2018-04-06T09:03:19.288Z,32.90
2018-04-06T09:05:48.806Z,31.40
2018-04-06T09:08:17.981Z,31.60
2018-04-06T09:10:46.262Z,31.60
2018-04-06T09:13:14.721Z,32.20
2018-04-06T09:15:43.019Z,32.00
2018-04-06T09:18:12.118Z,32.30
2018-04-06T09:20:40.410Z,32.30
2018-04-06T09:23:09.625Z,29.10
2018-04-06T09:25:38.031Z,29.10
2018-04-06T09:28:06.400Z,30.00
2018-04-06T09:30:34.885Z,28.90
2018-04-06T09:33:04.286Z,27.70
2018-04-06T09:35:32.651Z,27.70
2018-04-06T09:38:01.009Z,26.80
2018-04-06T09:40:30.100Z,27.20
2018-04-06T09:42:59.431Z,27.80
2018-04-06T09:45:27.748Z,27.80
2018-04-06T09:47:56.083Z,26.70
2018-04-06T09:50:24.412Z,27.20
2018-04-06T09:52:52.730Z,28.10
2018-04-06T09:55:22.422Z,27.30
2018-04-06T09:57:51.528Z,28.50
2018-04-06T10:00:25.397Z,28.40
2018-04-06T10:03:03.124Z,27.00
2018-04-06T10:05:32.162Z,26.60
2018-04-06T10:08:00.518Z,26.50
2018-04-06T10:10:28.852Z,26.50
2018-04-06T10:12:59.127Z,26.40
2018-04-06T10:15:27.815Z,26.10
2018-04-06T10:17:56.193Z,26.10
2018-04-06T10:20:24.522Z,26.40
2018-04-06T10:22:53.723Z,25.70
2018-04-06T10:25:22.996Z,26.60
2018-04-06T10:27:51.323Z,26.60
2018-04-06T10:30:19.721Z,27.00
2018-04-06T10:32:48.338Z,24.90
2018-04-06T10:35:16.748Z,24.90
2018-04-06T10:37:45.114Z,26.30
2018-04-06T10:40:14.358Z,26.40
2018-04-06T10:42:42.796Z,26.30
2018-04-06T10:45:13.248Z,25.20
2018-04-06T10:47:41.819Z,25.20
2018-04-06T10:52:45.949Z,24.50
2018-04-06T10:55:15.113Z,25.50
2018-04-06T10:57:43.608Z,25.00
2018-04-06T11:00:11.991Z,24.00
2018-04-06T11:02:41.187Z,24.60
2018-04-06T11:05:10.555Z,24.10
2018-04-06T11:07:38.866Z,24.10
2018-04-06T11:10:08.178Z,21.60
2018-04-06T11:12:37.272Z,21.30
2018-04-06T11:15:06.437Z,20.70
2018-04-06T11:17:34.768Z,20.70
2018-04-06T11:20:03.267Z,21.90
2018-04-06T11:22:31.613Z,21.30
2018-04-06T11:24:59.951Z,22.10
2018-04-06T11:27:29.910Z,21.90
2018-04-06T11:29:58.277Z,21.90
2018-04-06T11:32:26.708Z,21.00
2018-04-06T11:34:56.391Z,21.30
2018-04-06T11:37:24.815Z,21.20
2018-04-06T11:39:53.336Z,19.70
2018-04-06T11:42:21.952Z,20.50
2018-04-06T11:44:50.303Z,19.50
2018-04-06T11:47:18.723Z,19.80
2018-04-06T11:49:47.226Z,20.90
2018-04-06T11:52:15.798Z,19.50
2018-04-06T11:54:44.139Z,19.30
2018-04-06T11:57:12.629Z,19.50
2018-04-06T11:59:42.511Z,18.40
2018-04-06T12:02:10.953Z,20.10
2018-04-06T12:04:39.257Z,19.80
2018-04-06T12:07:08.486Z,18.50
2018-04-06T12:09:36.806Z,18.40
2018-04-06T12:12:05.107Z,18.80
2018-04-06T12:14:34.207Z,19.20
2018-04-06T12:17:02.917Z,19.10
2018-04-06T12:19:31.405Z,19.40
2018-04-06T12:21:59.734Z,19.80
2018-04-06T12:24:28.916Z,20.00
2018-04-06T12:26:57.283Z,19.90
2018-04-06T12:29:25.667Z,18.60
2018-04-06T12:31:54.111Z,18.90
2018-04-06T12:34:22.415Z,19.30
2018-04-06T12:36:51.149Z,17.60
2018-04-06T12:39:19.554Z,18.40
2018-04-06T12:41:48.031Z,18.40
2018-04-06T12:44:16.462Z,18.20
2018-04-06T12:46:44.998Z,17.40
2018-04-06T12:49:13.465Z,17.40
2018-04-06T12:51:41.764Z,16.90
2018-04-06T12:54:10.082Z,18.10
2018-04-06T12:56:39.173Z,17.40
2018-04-06T12:59:07.482Z,17.40
2018-04-06T13:01:35.810Z,18.10
2018-04-06T13:04:04.337Z,18.00
2018-04-06T13:06:32.811Z,17.70
2018-04-06T13:09:02.158Z,16.70
2018-04-06T13:11:30.612Z,16.70
2018-04-06T13:13:58.902Z,16.20
2018-04-06T13:16:27.349Z,16.70
2018-04-06T13:18:55.717Z,17.40
2018-04-06T13:21:24.822Z,17.60
2018-04-06T13:23:53.303Z,17.60
2018-04-06T13:26:21.774Z,15.90
2018-04-06T13:28:50.217Z,16.40
2018-04-06T13:31:19.553Z,16.70
2018-04-06T13:33:49.763Z,16.30
2018-04-06T13:36:18.267Z,16.30
2018-04-06T13:38:46.672Z,15.90
2018-04-06T13:41:15.212Z,16.50
2018-04-06T13:43:44.626Z,16.20
2018-04-06T13:46:13.756Z,16.70
2018-04-06T13:48:42.057Z,16.80
2018-04-06T13:51:10.490Z,16.50
2018-04-06T13:53:38.850Z,15.10
2018-04-06T13:56:07.914Z,14.90
2018-04-06T13:58:36.297Z,14.90
2018-04-06T14:01:05.105Z,15.40
2018-04-06T14:03:33.406Z,15.60
2018-04-06T14:06:02.973Z,15.50
2018-04-06T14:08:31.369Z,15.50
2018-04-06T14:11:00.656Z,14.90
2018-04-06T14:13:29.002Z,14.80
2018-04-06T14:15:57.535Z,16.00
2018-04-06T14:18:26.901Z,16.60
2018-04-06T14:20:55.266Z,16.60
2018-04-06T14:23:23.837Z,15.30
2018-04-06T14:25:52.356Z,14.60
2018-04-06T14:28:20.873Z,15.00
2018-04-06T14:30:49.457Z,15.20
2018-04-06T14:33:18.265Z,14.90
2018-04-06T14:35:46.605Z,14.30
2018-04-06T14:38:16.797Z,15.10
2018-04-06T14:40:45.278Z,15.00
2018-04-06T14:43:14.519Z,13.50
2018-04-06T14:45:43.340Z,13.50
2018-04-06T14:48:11.798Z,14.80
2018-04-06T14:50:40.284Z,15.10
2018-04-06T14:53:08.749Z,15.10
2018-04-06T14:55:37.222Z,14.50
2018-04-06T14:58:06.487Z,12.90
2018-04-06T15:00:34.992Z,12.80
2018-04-06T15:03:04.212Z,12.60
2018-04-06T15:05:32.540Z,12.50
2018-04-06T15:08:00.954Z,12.00
2018-04-06T15:10:29.587Z,11.70
2018-04-06T15:12:57.870Z,11.60
2018-04-06T15:15:26.192Z,11.80
2018-04-06T15:17:55.494Z,12.00
2018-04-06T15:20:24.699Z,11.60
2018-04-06T15:22:52.989Z,11.60
2018-04-06T15:25:21.566Z,12.40
2018-04-06T15:27:49.915Z,13.00
2018-04-06T15:30:19.157Z,12.50
2018-04-06T15:32:48.764Z,12.50
2018-04-06T15:35:17.102Z,12.30
2018-04-06T15:37:45.446Z,11.40
2018-04-06T15:40:13.764Z,11.90
2018-04-06T15:42:43.524Z,11.20
2018-04-06T15:45:11.924Z,11.10
2018-04-06T15:47:40.298Z,11.10
2018-04-06T15:50:08.628Z,11.20
2018-04-06T15:52:36.908Z,11.30
2018-04-06T15:55:05.403Z,12.00
2018-04-06T15:57:33.759Z,12.30
2018-04-06T16:00:02.210Z,12.40
2018-04-06T16:02:30.635Z,12.50
2018-04-06T16:04:59.064Z,12.20
2018-04-06T16:07:28.378Z,11.40
2018-04-06T16:09:57.465Z,11.40
2018-04-06T16:12:25.909Z,11.40
2018-04-06T16:14:54.357Z,10.90
2018-04-06T16:17:22.813Z,11.30
2018-04-06T16:19:52.150Z,11.50
2018-04-06T16:22:20.513Z,11.80
2018-04-06T16:24:49.048Z,11.70
2018-04-06T16:27:17.645Z,12.00
2018-04-06T16:29:46.071Z,12.30
2018-04-06T16:32:14.798Z,11.40
2018-04-06T16:34:45.304Z,11.00
2018-04-06T16:37:13.704Z,11.00
2018-04-06T16:39:42.112Z,11.30
2018-04-06T16:42:11.323Z,11.70
2018-04-06T16:44:39.798Z,11.60
2018-04-06T16:47:08.854Z,11.60
2018-04-06T16:49:37.177Z,12.00
2018-04-06T16:52:05.537Z,12.00
2018-04-06T16:54:34.591Z,13.70
2018-04-06T16:57:03.009Z,13.60
2018-04-06T16:59:32.246Z,14.00
2018-04-06T17:02:00.623Z,14.00
2018-04-06T17:04:29.056Z,14.40
2018-04-06T17:06:57.532Z,14.30
2018-04-06T17:09:26.294Z,15.30
2018-04-06T17:11:55.681Z,14.70
2018-04-06T17:14:24.488Z,14.90
2018-04-06T17:16:52.865Z,15.10
2018-04-06T17:19:23.793Z,15.40
2018-04-06T17:21:53.258Z,15.40
2018-04-06T17:24:22.425Z,15.00
2018-04-06T17:26:50.830Z,15.10
2018-04-06T17:29:19.969Z,15.50
2018-04-06T17:31:48.593Z,15.40
2018-04-06T17:34:16.961Z,15.20
2018-04-06T17:36:45.310Z,15.60
2018-04-06T17:39:13.675Z,15.60
2018-04-06T17:41:42.001Z,15.60
2018-04-06T17:44:10.554Z,15.90
2018-04-06T17:46:38.872Z,15.90
2018-04-06T17:49:09.178Z,16.40
2018-04-06T17:51:37.658Z,16.30
2018-04-06T17:54:05.995Z,16.60
2018-04-06T17:56:34.468Z,16.60
2018-04-06T17:59:02.906Z,16.60
2018-04-06T18:01:31.268Z,16.90
2018-04-06T18:03:59.608Z,17.10
2018-04-06T18:06:28.073Z,17.30
2018-04-06T18:08:56.482Z,17.50
2018-04-06T18:11:24.874Z,17.70
2018-04-06T18:13:53.199Z,17.60
2018-04-06T18:16:22.333Z,17.60
2018-04-06T18:18:50.863Z,17.70
2018-04-06T18:21:19.907Z,18.00
2018-04-06T18:23:49.859Z,17.90
2018-04-06T18:26:19.880Z,18.10
2018-04-06T18:28:48.894Z,18.00
2018-04-06T18:31:19.295Z,18.10
2018-04-06T18:33:47.795Z,18.10
2018-04-06T18:36:16.995Z,18.10
2018-04-06T18:38:46.204Z,18.10
2018-04-06T18:41:14.586Z,18.10
2018-04-06T18:43:43.021Z,18.40
2018-04-06T18:46:11.403Z,18.00
2018-04-06T18:48:40.007Z,18.30
2018-04-06T18:51:09.458Z,18.60
2018-04-06T18:53:38.484Z,18.60
2018-04-06T18:56:07.218Z,18.80
2018-04-06T18:58:36.771Z,18.70
2018-04-06T19:01:06.480Z,18.80
2018-04-06T19:03:35.156Z,18.90
2018-04-06T19:06:03.625Z,19.20
2018-04-06T19:08:31.950Z,19.10
2018-04-06T19:11:01.318Z,19.70
2018-04-06T19:13:29.718Z,19.20
2018-04-06T19:15:58.158Z,19.10
2018-04-06T19:18:27.386Z,19.30
2018-04-06T19:20:56.588Z,20.00
2018-04-06T19:23:25.131Z,20.00
2018-04-06T19:25:54.735Z,20.10
2018-04-06T19:28:23.929Z,20.10
2018-04-06T19:30:52.311Z,20.30
2018-04-06T19:33:20.754Z,20.40
2018-04-06T19:35:49.903Z,19.80
2018-04-06T19:38:18.478Z,19.80
2018-04-06T19:40:46.886Z,19.90
2018-04-06T19:43:15.408Z,20.00
2018-04-06T19:45:44.040Z,20.40
2018-04-06T19:48:12.532Z,20.70
2018-04-06T19:50:41.030Z,21.00
2018-04-06T19:53:09.773Z,20.50
2018-04-06T19:55:38.324Z,21.20
2018-04-06T19:58:08.574Z,20.80
2018-04-06T20:00:37.144Z,20.80
2018-04-06T20:03:05.581Z,20.80
2018-04-06T20:05:34.839Z,21.30
2018-04-06T20:08:03.221Z,21.30
2018-04-06T20:10:31.616Z,21.50
2018-04-06T20:13:00.161Z,21.40
2018-04-06T20:15:28.616Z,21.50
2018-04-06T20:17:57.885Z,22.00
2018-04-06T20:20:26.515Z,21.50
2018-04-06T20:22:55.237Z,21.90
2018-04-06T20:25:23.810Z,22.00
2018-04-06T20:27:52.287Z,21.80
2018-04-06T20:30:20.954Z,22.10
2018-04-06T20:32:49.344Z,22.10
2018-04-06T20:35:17.795Z,22.10
2018-04-06T20:37:47.056Z,22.50
2018-04-06T20:40:15.634Z,22.50
2018-04-06T20:42:43.985Z,22.80
2018-04-06T20:45:12.323Z,23.00
2018-04-06T20:47:41.443Z,23.70
2018-04-06T20:50:09.922Z,23.30
2018-04-06T20:52:38.286Z,23.50
2018-04-06T20:55:07.382Z,24.30
2018-04-06T20:57:36.527Z,24.40
2018-04-06T21:00:06.266Z,24.40
2018-04-06T21:02:34.663Z,24.40
2018-04-06T21:05:03.958Z,24.20
2018-04-06T21:07:32.283Z,24.70
2018-04-06T21:10:00.719Z,24.60
2018-04-06T21:12:29.867Z,24.70
2018-04-06T21:14:58.212Z,24.60
2018-04-06T21:17:27.327Z,24.50
2018-04-06T21:19:55.770Z,24.50
2018-04-06T21:22:24.132Z,25.00
2018-04-06T21:24:52.587Z,25.50
2018-04-06T21:27:21.060Z,25.80
2018-04-06T21:29:49.377Z,25.10
2018-04-06T21:32:19.530Z,25.60
2018-04-06T21:34:47.870Z,25.50
2018-04-06T21:37:16.382Z,25.70
2018-04-06T21:39:44.848Z,25.70
2018-04-06T21:42:14.211Z,25.70
2018-04-06T21:44:42.561Z,25.70
2018-04-06T21:47:10.864Z,25.80
2018-04-06T21:49:39.219Z,25.80
2018-04-06T21:52:07.623Z,25.90
2018-04-06T21:54:36.034Z,26.10
2018-04-06T21:57:05.293Z,26.30
2018-04-06T21:59:33.733Z,26.30
2018-04-06T22:02:02.135Z,26.30
2018-04-06T22:04:30.720Z,26.30
2018-04-06T22:06:59.195Z,26.40
2018-04-06T22:09:27.964Z,26.60
2018-04-06T22:11:57.151Z,26.50
2018-04-06T22:14:26.410Z,26.70
2018-04-06T22:16:54.713Z,26.70
2018-04-06T22:19:23.042Z,26.80
2018-04-06T22:21:51.410Z,27.00
2018-04-06T22:24:20.251Z,27.20
2018-04-06T22:26:48.610Z,27.40
2018-04-06T22:29:16.945Z,27.40
2018-04-06T22:31:45.276Z,27.30
2018-04-06T22:34:15.140Z,28.70
2018-04-06T22:36:43.517Z,28.10
2018-04-06T22:39:11.894Z,28.10
2018-04-06T22:41:40.216Z,28.40
2018-04-06T22:44:08.555Z,28.30
2018-04-06T22:46:36.989Z,28.50
2018-04-06T22:49:05.586Z,28.50
2018-04-06T22:51:34.746Z,28.40
2018-04-06T22:54:03.165Z,28.40
2018-04-06T22:56:32.294Z,28.80
2018-04-06T22:59:00.745Z,28.70
2018-04-06T23:01:29.097Z,28.70
2018-04-06T23:03:57.459Z,28.60
2018-04-06T23:06:25.890Z,28.60
2018-04-06T23:08:54.400Z,28.90
2018-04-06T23:11:22.786Z,28.50
2018-04-06T23:13:51.214Z,28.70
2018-04-06T23:16:20.314Z,28.70
2018-04-06T23:18:49.426Z,28.50
2018-04-06T23:21:17.792Z,28.60
2018-04-06T23:23:46.186Z,28.50
2018-04-06T23:26:14.487Z,28.40
2018-04-06T23:28:42.805Z,28.50
2018-04-06T23:31:11.146Z,28.30
2018-04-06T23:33:39.499Z,28.40
2018-04-06T23:36:09.141Z,28.50
2018-04-06T23:38:37.490Z,28.50
2018-04-06T23:41:05.850Z,28.20
2018-04-06T23:43:34.279Z,28.30
2018-04-06T23:46:02.709Z,28.10
2018-04-06T23:48:31.211Z,28.20
2018-04-06T23:50:59.631Z,28.10
2018-04-06T23:53:28.026Z,28.20
2018-04-06T23:55:57.146Z,28.30
2018-04-06T23:58:25.441Z,28.30
